Rechercher aéroport 
image banner adimage banner adimage banner ad
image banner ad

KSLI - Los Alamitos Aaf

Situé à Los Alamitos, United States

ICAO - SLI, IATA -

Données fournies par Airmate  

Information générale

Coordonnées: N33°47'24" W118°3'5"
Élévation : 35 feet MSL.
Variation magnétique : 12° East
Voir autres Aéroports à California

Données opérationnelles

Special qualification required
Heure actuelle UTC:
Heure actuelle locale:
Météo
METAR: KSLI 251456Z 00000KT 10SM OVC012 20/18 A2999 RMK AO2A SLP159 T01990178 52015
TAF: TAF KSLI 251300Z 2513/2619 21006KT 9999 SCT050 BKN090 QNH2998INS TEMPO 2600/2602 20006KT 9000 SHRA BKN080 BECMG 2602/2603 VRB06KT 9999 NSW BKN070 OVC100 QNH3000INS TEMPO 2609/2614 17006KT 8000 SHRA VCTS BKN045CB OVC100 BECMG 2614/2615 18006KT 9999 NSW SCT080 BKN100 QNH3002INS TX31/2521Z TN20/2513Z
Voir NOTAMs / SUP AIP / TFR affectant cet aéroport [VIEW]
Fréquences de communication: [VIEW]

Pistes:

Identifiant RWYQFULongueur (ft)Largeur (ft)SurfaceLDA (ft)
04R7999200OTHER
22L7999200OTHER
04L5901150OTHER
22R5901150OTHER

Coordonnées de l'aéroport

Adresse: Los Alamitos United States

Vue satellite de KSLI